Aérodrome :
LOGIN :

S'inscrire | Disclaimer

   EN    FR    IT 

 










Légende :    VFR   VFR Marginal   IFR   IFR Intensif   IFR Très Intensif
Visi : 
Plafond : 
>= 8 km
>= 3000ft
5 à 8 km
1000 à 3000 ft
1500m à 5 km
500 à 1000 ft
800 à 1500m
200 à 500 ft
< 800m
< 200 ft
Symboles :   Orages  Brouillard  Fortes neiges  Fortes précipitations  Vent > 20 kt
SIGMETs :   Divers  Orages  Givrage  Turbulence  Onde Orograph.  Cendres Volcan.






- Altitude de l'aérodrome : 408 ft
- Code IATA : FKB


EDSB - Karlsruhe Baden Baden

DERNIER METAR :
  • 120450Z 21006KT 9999 -RA FEW030 BKN034 OVC045 04/03 Q1005

METARs EXPIRÉS :
  • 120420Z 22005KT 9999 BKN036 BKN042 OVC060 04/03 Q1005
  • 120350Z 22004KT 9999 FEW033 BKN039 OVC046 04/03 Q1005
  • 120320Z AUTO 21005KT 9999 BKN035/// BKN045/// BKN053/// 04/03 Q1006
  • 120250Z AUTO 22006KT 9999 BKN036/// 04/03 Q1006
  • 120220Z AUTO 21005KT 9999 OVC037/// 04/03 Q1006

TAF AMD TAF EDSB
Valide du 11 à 19h jusqu'au 12 à 18h UTC


111943Z 1119/1218 19005KT 9000 SCT015 BKN025
TEMPO 1119/1202 21011KT 4500 RADZ BKN009 OVC012
PROB30
TEMPO 1202/1208 3000 DZRA BKN010
BECMG 1205/1208 21010KT
PROB30
TEMPO 1208/1212 4000 SHRA BKN012TCU



MET'MAP, la Météo Aéronautique d'un coup d'oeil ! - Copyright ORBIFLY Décembre 2007 - Disclaimer

ORBIFLY MET'MAP TEAM :

Programmation & Développement : Alexandra Zaïnal
Sur une idée originale de : Baudouin d'Aumeries
Assistance à la programmation : Marc-Olivier Méhu
Soutien technique & logistique : Manuel Goepfert

Contact : metmap@orbifly.com




SOURCES & CREDITS :

   NOAA